createdAt,value
2023-08-20T00:00:55.768Z,79.81
2023-08-20T00:03:23.891Z,80.14
2023-08-20T00:05:52.320Z,80.25
2023-08-20T00:08:20.157Z,80.54
2023-08-20T00:10:47.979Z,80.42
2023-08-20T00:13:15.784Z,80.75
2023-08-20T00:15:44.854Z,80.80
2023-08-20T00:18:15.080Z,80.73
2023-08-20T00:20:43.218Z,80.65
2023-08-20T00:23:11.745Z,80.59
2023-08-20T00:25:40.271Z,80.57
2023-08-20T00:28:08.056Z,80.50
2023-08-20T00:30:35.870Z,80.31
2023-08-20T00:33:03.908Z,80.38
2023-08-20T00:35:33.295Z,80.11
2023-08-20T00:38:01.186Z,80.25
2023-08-20T00:40:29.011Z,80.22
2023-08-20T00:42:57.369Z,80.23
2023-08-20T00:45:25.456Z,80.28
2023-08-20T00:47:54.026Z,80.17
2023-08-20T00:50:22.228Z,80.53
2023-08-20T00:52:51.581Z,80.37
2023-08-20T00:55:19.478Z,80.50
2023-08-20T00:57:47.319Z,80.65
2023-08-20T01:00:15.454Z,80.87
2023-08-20T01:02:45.629Z,80.88
2023-08-20T01:05:15.487Z,80.72
2023-08-20T01:07:58.574Z,80.79
2023-08-20T01:10:36.198Z,80.85
2023-08-20T01:13:05.382Z,80.88
2023-08-20T01:15:33.204Z,80.88
2023-08-20T01:18:01.167Z,80.90
2023-08-20T01:20:34.173Z,80.83
2023-08-20T01:23:31.960Z,81.06
2023-08-20T01:26:15.894Z,80.99
2023-08-20T01:28:45.719Z,81.10
2023-08-20T01:31:14.723Z,81.58
2023-08-20T01:33:42.001Z,81.73
2023-08-20T01:36:11.502Z,82.14
2023-08-20T01:38:39.793Z,82.40
2023-08-20T01:41:07.671Z,82.44
2023-08-20T01:43:35.558Z,82.63
2023-08-20T01:46:04.690Z,82.87
2023-08-20T01:48:33.466Z,83.12
2023-08-20T01:51:01.333Z,83.00
2023-08-20T01:53:29.151Z,83.12
2023-08-20T01:55:57.117Z,82.93
2023-08-20T01:58:26.166Z,83.08
2023-08-20T02:00:54.354Z,83.26
2023-08-20T02:03:23.770Z,83.49
2023-08-20T02:05:51.584Z,83.55
2023-08-20T02:08:19.372Z,83.65
2023-08-20T02:10:47.169Z,83.73
2023-08-20T02:13:15.142Z,83.59
2023-08-20T02:15:43.029Z,83.73
2023-08-20T02:18:10.887Z,83.79
2023-08-20T02:20:40.046Z,84.07
2023-08-20T02:23:07.852Z,84.08
2023-08-20T02:25:36.706Z,84.24
2023-08-20T02:28:04.899Z,84.36
2023-08-20T02:30:32.701Z,84.54
2023-08-20T02:33:00.601Z,84.51
2023-08-20T02:35:28.447Z,84.90
2023-08-20T02:37:57.640Z,85.03
2023-08-20T02:40:25.415Z,85.10
2023-08-20T02:42:53.254Z,85.36
2023-08-20T02:45:21.079Z,85.62
2023-08-20T02:47:48.926Z,85.66
2023-08-20T02:50:17.594Z,85.84
2023-08-20T02:52:45.470Z,86.15
2023-08-20T02:55:14.618Z,86.09
2023-08-20T02:57:42.488Z,86.71
2023-08-20T03:00:12.474Z,86.74
2023-08-20T03:02:41.253Z,86.95
2023-08-20T03:05:10.030Z,86.91
2023-08-20T03:07:37.834Z,87.29
2023-08-20T03:10:07.350Z,87.38
2023-08-20T03:12:36.660Z,87.53
2023-08-20T03:15:04.992Z,87.70
2023-08-20T03:17:33.227Z,87.82
2023-08-20T03:20:04.565Z,87.83
2023-08-20T03:22:32.422Z,87.65
2023-08-20T03:25:00.316Z,87.68
2023-08-20T03:27:28.341Z,88.06
2023-08-20T03:29:57.835Z,88.06
2023-08-20T03:32:25.601Z,88.14
2023-08-20T03:34:55.119Z,88.09
2023-08-20T03:37:23.652Z,88.00
2023-08-20T03:39:51.510Z,88.30
2023-08-20T03:42:19.358Z,88.15
2023-08-20T03:44:51.031Z,88.41
2023-08-20T03:47:21.720Z,88.42
2023-08-20T03:49:50.075Z,88.20
2023-08-20T03:52:17.829Z,88.09
2023-08-20T03:54:45.718Z,88.17
2023-08-20T03:57:13.499Z,88.37
2023-08-20T03:59:41.398Z,88.33
2023-08-20T04:02:09.265Z,88.33
2023-08-20T04:04:38.587Z,88.42
2023-08-20T04:07:06.548Z,88.61
2023-08-20T04:09:35.240Z,88.49
2023-08-20T04:12:03.170Z,88.44
2023-08-20T04:14:31.094Z,88.42
2023-08-20T04:16:59.023Z,88.50
2023-08-20T04:19:27.236Z,88.57
2023-08-20T04:21:56.471Z,88.59
2023-08-20T04:24:24.497Z,88.45
2023-08-20T04:26:52.415Z,88.37
2023-08-20T04:29:20.218Z,88.41
2023-08-20T04:31:48.103Z,88.66
2023-08-20T04:34:15.994Z,88.93
2023-08-20T04:36:43.812Z,89.18
2023-08-20T04:39:13.077Z,89.46
2023-08-20T04:41:40.940Z,89.62
2023-08-20T04:44:08.756Z,90.00
2023-08-20T04:46:36.564Z,90.25
2023-08-20T04:49:04.794Z,90.37
2023-08-20T04:51:32.676Z,90.25
2023-08-20T04:54:00.489Z,90.27
2023-08-20T04:56:29.711Z,90.72
2023-08-20T04:58:57.598Z,90.72
2023-08-20T05:01:25.473Z,91.29
2023-08-20T05:03:53.335Z,91.18
2023-08-20T05:06:21.150Z,91.33
2023-08-20T05:08:48.930Z,91.19
2023-08-20T05:11:16.712Z,91.33
2023-08-20T05:13:47.683Z,91.53
2023-08-20T05:16:15.547Z,91.49
2023-08-20T05:18:43.441Z,91.53
2023-08-20T05:21:14.480Z,92.10
2023-08-20T05:23:42.407Z,92.23
2023-08-20T05:26:10.467Z,92.31
2023-08-20T05:28:38.299Z,92.34
2023-08-20T05:31:07.543Z,92.88
2023-08-20T05:33:35.353Z,93.00
2023-08-20T05:36:03.293Z,93.29
2023-08-20T05:38:31.170Z,93.76
2023-08-20T05:40:59.068Z,94.15
2023-08-20T05:43:26.885Z,94.24
2023-08-20T05:45:54.812Z,94.35
2023-08-20T05:48:24.026Z,94.27
2023-08-20T05:50:51.869Z,94.40
2023-08-20T05:53:19.750Z,94.70
2023-08-20T05:55:47.606Z,94.95
2023-08-20T05:58:15.530Z,95.03
2023-08-20T06:00:43.528Z,95.29
2023-08-20T06:03:11.583Z,95.53
2023-08-20T06:05:40.790Z,96.01
2023-08-20T06:08:08.746Z,96.31
2023-08-20T06:10:36.658Z,96.65
2023-08-20T06:13:04.622Z,96.65
2023-08-20T06:15:32.711Z,96.84
2023-08-20T06:18:00.575Z,96.78
2023-08-20T06:20:28.476Z,96.84
2023-08-20T06:22:57.657Z,96.62
2023-08-20T06:25:25.441Z,96.48
2023-08-20T06:27:53.274Z,96.38
2023-08-20T06:30:21.123Z,96.44
2023-08-20T06:32:48.973Z,96.33
2023-08-20T06:35:16.872Z,96.31
2023-08-20T06:37:44.718Z,95.85
2023-08-20T06:40:14.877Z,95.71
2023-08-20T06:42:42.729Z,95.61
2023-08-20T06:45:11.442Z,95.30
2023-08-20T06:47:39.948Z,95.18
2023-08-20T06:50:08.707Z,94.74
2023-08-20T06:52:36.556Z,94.50
2023-08-20T06:55:05.201Z,94.15
2023-08-20T06:57:34.721Z,93.47
2023-08-20T07:00:05.047Z,93.10
2023-08-20T07:02:32.930Z,92.61
2023-08-20T07:05:00.849Z,92.53
2023-08-20T07:07:28.774Z,92.08
2023-08-20T07:09:56.653Z,91.65
2023-08-20T07:12:24.432Z,91.06
2023-08-20T07:14:53.606Z,90.38
2023-08-20T07:17:21.410Z,90.09
2023-08-20T07:19:49.630Z,89.60
2023-08-20T07:22:17.449Z,88.50
2023-08-20T07:24:45.379Z,87.90
2023-08-20T07:27:13.770Z,87.45
2023-08-20T07:29:43.409Z,86.51
2023-08-20T07:32:13.088Z,86.09
2023-08-20T07:34:41.078Z,85.67
2023-08-20T07:37:09.230Z,85.10
2023-08-20T07:39:37.357Z,84.96
2023-08-20T07:42:05.764Z,83.91
2023-08-20T07:44:33.704Z,82.96
2023-08-20T07:47:01.540Z,81.52
2023-08-20T07:49:30.745Z,80.99
2023-08-20T07:51:58.577Z,81.33
2023-08-20T07:54:26.454Z,80.98
2023-08-20T07:56:54.280Z,80.45
2023-08-20T07:59:22.121Z,77.25
2023-08-20T08:01:49.969Z,78.38
2023-08-20T08:04:17.806Z,77.36
2023-08-20T08:06:47.028Z,77.42
2023-08-20T08:09:23.131Z,77.74
2023-08-20T08:11:51.500Z,77.01
2023-08-20T08:14:19.442Z,76.73
2023-08-20T08:16:48.571Z,77.40
2023-08-20T08:19:16.661Z,77.01
2023-08-20T08:21:46.324Z,75.34
2023-08-20T08:24:15.520Z,75.26
2023-08-20T08:26:43.668Z,74.43
2023-08-20T08:29:11.722Z,72.94
2023-08-20T08:31:39.536Z,71.16
2023-08-20T08:34:07.353Z,72.12
2023-08-20T08:36:35.248Z,71.16
2023-08-20T08:39:04.980Z,66.87
2023-08-20T08:41:36.340Z,70.00
2023-08-20T08:44:04.932Z,70.35
2023-08-20T08:46:33.524Z,69.35
2023-08-20T08:49:02.102Z,68.90
2023-08-20T08:51:30.969Z,69.10
2023-08-20T08:53:59.242Z,68.60
2023-08-20T08:56:28.475Z,67.14
2023-08-20T08:58:56.407Z,67.78
2023-08-20T09:01:24.285Z,67.46
2023-08-20T09:03:52.108Z,67.99
2023-08-20T09:06:19.963Z,66.65
2023-08-20T09:08:47.778Z,65.63
2023-08-20T09:11:15.596Z,64.84
2023-08-20T09:13:45.806Z,62.64
2023-08-20T09:16:14.396Z,63.31
2023-08-20T09:18:43.428Z,61.96
2023-08-20T09:21:15.596Z,62.41
2023-08-20T09:23:48.128Z,61.91
2023-08-20T09:26:16.028Z,62.38
2023-08-20T09:28:46.423Z,56.72
2023-08-20T09:31:15.632Z,57.51
2023-08-20T09:33:53.105Z,56.87
2023-08-20T09:36:21.465Z,59.33
2023-08-20T09:38:53.728Z,58.19
2023-08-20T09:41:21.682Z,54.93
2023-08-20T09:43:55.009Z,55.86
2023-08-20T09:46:25.842Z,57.50
2023-08-20T09:48:57.453Z,58.61
2023-08-20T09:51:28.147Z,59.10
2023-08-20T09:54:02.699Z,58.96
2023-08-20T09:56:32.852Z,57.06
2023-08-20T09:59:03.058Z,56.00
2023-08-20T10:01:32.503Z,57.58
2023-08-20T10:04:02.334Z,57.30
2023-08-20T10:06:31.489Z,55.22
2023-08-20T10:09:01.567Z,55.09
2023-08-20T10:11:29.639Z,55.75
2023-08-20T10:13:58.144Z,55.91
2023-08-20T10:16:29.931Z,55.38
2023-08-20T10:19:00.587Z,55.17
2023-08-20T10:21:29.703Z,55.23
2023-08-20T10:23:57.644Z,55.26
2023-08-20T10:26:26.098Z,55.82
2023-08-20T10:29:17.632Z,53.29
2023-08-20T10:31:49.804Z,54.25
2023-08-20T10:34:35.969Z,55.09
2023-08-20T10:37:05.592Z,53.67
2023-08-20T10:39:33.456Z,52.43
2023-08-20T10:42:24.810Z,52.85
2023-08-20T10:45:00.290Z,49.78
2023-08-20T10:47:38.523Z,52.13
2023-08-20T10:50:08.927Z,52.93
2023-08-20T10:52:41.009Z,52.94
2023-08-20T10:55:10.627Z,53.15
2023-08-20T10:57:40.225Z,52.47
2023-08-20T11:00:12.316Z,51.67
2023-08-20T11:02:43.156Z,51.08
2023-08-20T11:05:19.916Z,51.19
2023-08-20T11:07:50.875Z,49.77
2023-08-20T11:10:20.771Z,50.63
2023-08-20T11:12:49.079Z,50.36
2023-08-20T11:15:16.948Z,47.38
2023-08-20T11:17:50.743Z,49.21
2023-08-20T11:20:19.594Z,45.58
2023-08-20T11:22:47.563Z,47.66
2023-08-20T11:25:15.735Z,47.65
2023-08-20T11:27:44.215Z,51.73
2023-08-20T11:30:14.378Z,51.33
2023-08-20T11:32:44.074Z,49.99
2023-08-20T11:35:15.350Z,49.65
2023-08-20T11:37:43.222Z,49.25
2023-08-20T11:40:11.745Z,44.46
2023-08-20T11:42:39.613Z,47.65
2023-08-20T11:45:11.945Z,47.19
2023-08-20T11:47:41.477Z,46.70
2023-08-20T11:50:10.333Z,46.18
2023-08-20T11:52:41.681Z,45.36
2023-08-20T11:55:11.445Z,44.73
2023-08-20T11:57:39.541Z,44.62
2023-08-20T12:00:11.036Z,43.71
2023-08-20T12:02:40.858Z,45.13
2023-08-20T12:05:09.302Z,41.35
2023-08-20T12:07:37.624Z,43.21
2023-08-20T12:10:25.286Z,42.33
2023-08-20T12:12:53.716Z,43.18
2023-08-20T12:15:22.086Z,44.59
2023-08-20T12:18:05.442Z,45.79
2023-08-20T12:20:34.029Z,45.07
2023-08-20T12:23:03.764Z,46.13
2023-08-20T12:25:34.950Z,46.56
2023-08-20T12:28:02.998Z,43.41
2023-08-20T12:30:30.937Z,42.34
2023-08-20T12:32:59.063Z,44.27
2023-08-20T12:35:26.997Z,43.64
2023-08-20T12:37:54.943Z,42.26
2023-08-20T12:40:24.323Z,42.06
2023-08-20T12:42:53.631Z,42.05
2023-08-20T12:45:21.702Z,40.02
2023-08-20T12:47:49.707Z,42.77
2023-08-20T12:50:17.830Z,40.82
2023-08-20T12:52:45.634Z,42.88
2023-08-20T12:55:13.573Z,40.46
2023-08-20T12:57:56.867Z,39.48
2023-08-20T13:00:26.211Z,41.68
2023-08-20T13:02:55.950Z,41.49
2023-08-20T13:05:25.468Z,40.77
2023-08-20T13:07:54.488Z,41.96
2023-08-20T13:10:23.609Z,41.03
2023-08-20T13:12:55.277Z,41.22
2023-08-20T13:15:27.311Z,40.23
2023-08-20T13:17:56.697Z,40.36
2023-08-20T13:20:26.292Z,40.91
2023-08-20T13:22:54.584Z,41.89
2023-08-20T13:25:23.487Z,43.54
2023-08-20T13:27:51.725Z,43.73
2023-08-20T13:30:20.612Z,43.47
2023-08-20T13:32:52.437Z,44.54
2023-08-20T13:35:20.384Z,44.93
2023-08-20T13:37:48.354Z,44.85
2023-08-20T13:40:16.439Z,45.21
2023-08-20T13:42:44.290Z,45.86
2023-08-20T13:45:12.285Z,45.58
2023-08-20T13:47:40.258Z,45.78
2023-08-20T13:50:10.991Z,45.95
2023-08-20T13:52:39.308Z,45.37
2023-08-20T13:55:09.108Z,46.86
2023-08-20T13:57:37.259Z,45.30
2023-08-20T14:00:09.845Z,46.29
2023-08-20T14:02:37.931Z,46.20
2023-08-20T14:05:06.850Z,46.07
2023-08-20T14:07:36.108Z,46.06
2023-08-20T14:10:05.133Z,46.00
2023-08-20T14:12:33.192Z,44.60
2023-08-20T14:15:01.127Z,45.40
2023-08-20T14:17:29.775Z,46.50
2023-08-20T14:19:57.821Z,46.74
2023-08-20T14:22:27.805Z,45.63
2023-08-20T14:24:57.088Z,46.11
2023-08-20T14:27:25.079Z,45.48
2023-08-20T14:29:53.074Z,45.82
2023-08-20T14:32:20.983Z,45.77
2023-08-20T14:34:51.591Z,45.79
2023-08-20T14:37:25.211Z,47.06
2023-08-20T14:40:46.537Z,45.64
2023-08-20T14:43:19.139Z,45.95
2023-08-20T14:45:47.867Z,46.36
2023-08-20T14:48:16.268Z,46.95
2023-08-20T14:50:44.948Z,46.35
2023-08-20T14:53:13.045Z,45.96
2023-08-20T14:55:42.360Z,47.16
2023-08-20T14:58:10.336Z,46.41
2023-08-20T15:00:39.784Z,45.45
2023-08-20T15:03:16.737Z,47.14
2023-08-20T15:05:44.547Z,47.17
2023-08-20T15:08:12.423Z,47.48
2023-08-20T15:10:41.321Z,48.18
2023-08-20T15:13:09.180Z,47.58
2023-08-20T15:15:37.003Z,48.42
2023-08-20T15:18:07.163Z,48.00
2023-08-20T15:20:35.052Z,48.31
2023-08-20T15:23:03.179Z,47.91
2023-08-20T15:25:31.054Z,47.37
2023-08-20T15:27:59.077Z,46.97
2023-08-20T15:30:27.019Z,47.16
2023-08-20T15:32:54.904Z,45.92
2023-08-20T15:35:24.162Z,47.57
2023-08-20T15:37:53.743Z,45.91
2023-08-20T15:40:21.525Z,46.81
2023-08-20T15:42:49.414Z,47.06
2023-08-20T15:45:17.242Z,47.25
2023-08-20T15:47:45.093Z,47.42
2023-08-20T15:50:13.874Z,47.68
2023-08-20T15:52:43.454Z,48.12
2023-08-20T15:55:11.657Z,48.10
2023-08-20T15:57:39.512Z,47.88
2023-08-20T16:00:15.607Z,47.86
2023-08-20T16:02:43.691Z,47.88
2023-08-20T16:05:12.017Z,48.46
2023-08-20T16:07:40.317Z,47.39
2023-08-20T16:10:11.913Z,48.02
2023-08-20T16:12:39.898Z,48.24
2023-08-20T16:15:08.936Z,46.41
2023-08-20T16:17:36.994Z,47.63
2023-08-20T16:20:10.990Z,48.16
2023-08-20T16:22:38.844Z,47.76
2023-08-20T16:25:10.464Z,47.73
2023-08-20T16:27:40.197Z,48.01
2023-08-20T16:30:11.208Z,46.89
2023-08-20T16:32:39.450Z,46.57
2023-08-20T16:35:08.668Z,48.07
2023-08-20T16:37:36.820Z,46.80
2023-08-20T16:40:09.049Z,47.47
2023-08-20T16:42:37.004Z,46.83
2023-08-20T16:45:07.296Z,46.99
2023-08-20T16:47:35.448Z,47.61
2023-08-20T16:50:03.961Z,47.05
2023-08-20T16:52:31.939Z,47.13
2023-08-20T16:54:59.813Z,47.65
2023-08-20T16:57:27.645Z,48.17
2023-08-20T16:59:55.426Z,49.14
2023-08-20T17:02:24.725Z,46.71
2023-08-20T17:04:52.482Z,47.37
2023-08-20T17:07:20.982Z,46.65
2023-08-20T17:09:48.833Z,47.51
2023-08-20T17:12:17.116Z,47.43
2023-08-20T17:14:45.235Z,48.02
2023-08-20T17:17:13.817Z,48.48
2023-08-20T17:19:43.088Z,49.20
2023-08-20T17:22:11.191Z,49.81
2023-08-20T17:24:39.109Z,50.51
2023-08-20T17:27:07.754Z,50.04
2023-08-20T17:29:35.629Z,50.57
2023-08-20T17:32:03.605Z,49.77
2023-08-20T17:34:32.438Z,49.95
2023-08-20T17:37:01.798Z,50.71
2023-08-20T17:39:29.638Z,50.15
2023-08-20T17:41:57.466Z,49.99
2023-08-20T17:44:25.344Z,50.66
2023-08-20T17:46:55.798Z,51.16
2023-08-20T17:49:23.724Z,51.40
2023-08-20T17:51:51.535Z,51.35
2023-08-20T17:54:20.750Z,51.69
2023-08-20T17:56:48.610Z,51.88
2023-08-20T17:59:16.437Z,51.61
2023-08-20T18:01:44.424Z,52.06
2023-08-20T18:04:12.786Z,51.19
2023-08-20T18:06:41.145Z,52.15
2023-08-20T18:09:09.126Z,52.29
2023-08-20T18:11:38.514Z,51.82
2023-08-20T18:14:06.402Z,51.65
2023-08-20T18:16:34.477Z,51.69
2023-08-20T18:19:02.377Z,51.74
2023-08-20T18:21:30.258Z,51.74
2023-08-20T18:23:58.104Z,51.66
2023-08-20T18:26:26.176Z,51.30
2023-08-20T18:28:55.394Z,51.79
2023-08-20T18:31:23.347Z,51.91
2023-08-20T18:33:51.231Z,52.02
2023-08-20T18:36:19.147Z,51.98
2023-08-20T18:38:47.430Z,52.30
2023-08-20T18:41:15.978Z,52.26
2023-08-20T18:43:43.845Z,52.98
2023-08-20T18:46:14.209Z,53.16
2023-08-20T18:48:42.512Z,53.38
2023-08-20T18:51:10.584Z,53.49
2023-08-20T18:53:39.686Z,54.02
2023-08-20T18:56:07.952Z,53.88
2023-08-20T18:58:36.129Z,53.71
2023-08-20T19:01:04.290Z,54.18
2023-08-20T19:03:36.779Z,54.05
2023-08-20T19:06:05.322Z,53.93
2023-08-20T19:08:33.440Z,53.95
2023-08-20T19:11:01.649Z,53.82
2023-08-20T19:13:29.864Z,53.74
2023-08-20T19:15:57.891Z,53.56
2023-08-20T19:18:25.797Z,53.90
2023-08-20T19:20:55.253Z,53.94
2023-08-20T19:23:23.814Z,54.59
2023-08-20T19:25:52.142Z,55.17
2023-08-20T19:28:26.630Z,55.64
2023-08-20T19:30:55.366Z,56.03
2023-08-20T19:33:23.964Z,56.14
2023-08-20T19:35:51.793Z,56.49
2023-08-20T19:38:21.056Z,57.14
2023-08-20T19:40:49.286Z,57.08
2023-08-20T19:43:17.475Z,57.53
2023-08-20T19:45:45.311Z,57.46
2023-08-20T19:48:13.827Z,57.58
2023-08-20T19:50:42.425Z,57.89
2023-08-20T19:53:10.661Z,58.63
2023-08-20T19:55:40.232Z,58.89
2023-08-20T19:58:08.097Z,59.62
2023-08-20T20:00:35.965Z,60.03
2023-08-20T20:03:04.256Z,60.71
2023-08-20T20:05:32.549Z,60.67
2023-08-20T20:08:00.737Z,61.54
2023-08-20T20:10:28.733Z,61.77
2023-08-20T20:12:57.942Z,61.84
2023-08-20T20:15:25.730Z,61.38
2023-08-20T20:17:53.592Z,61.33
2023-08-20T20:20:24.587Z,61.48
2023-08-20T20:22:52.891Z,61.48
2023-08-20T20:25:22.908Z,61.26
2023-08-20T20:27:52.229Z,61.35
2023-08-20T20:30:22.157Z,61.67
2023-08-20T20:32:50.449Z,61.75
2023-08-20T20:35:18.491Z,62.24
2023-08-20T20:37:48.575Z,62.15
2023-08-20T20:40:16.565Z,62.36
2023-08-20T20:42:44.565Z,62.39
2023-08-20T20:45:13.059Z,62.62
2023-08-20T20:47:42.810Z,63.05
2023-08-20T20:50:10.998Z,63.24
2023-08-20T20:52:39.051Z,63.71
2023-08-20T20:55:09.549Z,64.17
2023-08-20T20:57:37.828Z,64.44
2023-08-20T21:00:06.779Z,64.58
2023-08-20T21:02:35.002Z,65.13
2023-08-20T21:05:04.553Z,65.46
2023-08-20T21:07:32.411Z,65.70
2023-08-20T21:10:00.750Z,65.94
2023-08-20T21:12:28.925Z,65.84
2023-08-20T21:14:57.319Z,65.82
2023-08-20T21:17:25.157Z,66.11
2023-08-20T21:19:53.906Z,66.13
2023-08-20T21:22:23.372Z,66.07
2023-08-20T21:24:51.535Z,66.28
2023-08-20T21:27:19.320Z,66.36
2023-08-20T21:29:47.161Z,66.65
2023-08-20T21:32:14.980Z,66.66
2023-08-20T21:34:44.256Z,66.72
2023-08-20T21:37:12.068Z,66.95
2023-08-20T21:39:41.298Z,66.91
2023-08-20T21:42:09.123Z,66.87
2023-08-20T21:44:36.930Z,66.90
2023-08-20T21:47:22.439Z,67.12
2023-08-20T21:49:50.632Z,67.11
2023-08-20T21:52:19.632Z,67.22
2023-08-20T21:54:48.986Z,66.91
2023-08-20T21:57:21.322Z,66.99
2023-08-20T21:59:50.537Z,67.16
2023-08-20T22:02:18.866Z,67.50
2023-08-20T22:04:47.012Z,67.29
2023-08-20T22:07:14.824Z,67.64
2023-08-20T22:09:42.627Z,67.86
2023-08-20T22:12:12.045Z,67.81
2023-08-20T22:14:41.206Z,67.84
2023-08-20T22:17:09.637Z,67.92
2023-08-20T22:19:37.669Z,68.11
2023-08-20T22:22:05.584Z,68.27
2023-08-20T22:24:33.473Z,68.28
2023-08-20T22:27:01.324Z,68.29
2023-08-20T22:29:30.523Z,68.46
2023-08-20T22:31:58.342Z,68.57
2023-08-20T22:34:26.385Z,68.71
2023-08-20T22:36:54.181Z,68.83
2023-08-20T22:39:21.981Z,68.86
2023-08-20T22:41:49.793Z,69.10
2023-08-20T22:44:17.602Z,69.17
2023-08-20T22:46:46.769Z,69.51
2023-08-20T22:49:14.577Z,69.95
2023-08-20T22:51:42.414Z,70.25
2023-08-20T22:54:10.258Z,70.32
2023-08-20T22:56:38.133Z,70.30
2023-08-20T22:59:05.934Z,70.44
2023-08-20T23:01:33.873Z,70.44
2023-08-20T23:04:03.133Z,70.47
2023-08-20T23:06:30.961Z,70.67
2023-08-20T23:08:58.786Z,70.94
2023-08-20T23:11:26.701Z,70.97
2023-08-20T23:13:54.538Z,71.05
2023-08-20T23:16:22.430Z,71.37
2023-08-20T23:18:50.242Z,71.31
2023-08-20T23:21:19.464Z,71.50
2023-08-20T23:23:47.276Z,71.49
2023-08-20T23:26:15.073Z,71.74
2023-08-20T23:28:42.877Z,72.06
2023-08-20T23:31:11.755Z,72.39
2023-08-20T23:33:39.662Z,72.69
2023-08-20T23:36:07.698Z,73.15
2023-08-20T23:38:41.222Z,73.35
2023-08-20T23:41:09.499Z,73.44
2023-08-20T23:43:39.821Z,73.43
2023-08-20T23:46:08.721Z,73.51
2023-08-20T23:48:36.671Z,73.77
2023-08-20T23:51:04.527Z,73.66
2023-08-20T23:53:32.513Z,73.69
2023-08-20T23:56:01.697Z,73.99
2023-08-20T23:58:29.492Z,74.34
